Hilldale, Tennessee
Current Conditions -  °F | °C
As of 11:52 AM on Thursday 27 Nov 2014 (Local Time) from KCKV Reporting Station
Overcast Overcast  
Wind Chill: 26°   Ceiling: 2200
Heat Index: 35°   Visibility: 10mi
Dew Point: 26°   Wind: 15mph
Humidity: 70%   Direction: 340°NNW
Pressure: 30.44"   Gusts: NA
Location:  36.4964°N, 87.234°W
Report Text: KCKV 271752Z AUTO 34013KT 10SM BKN022 OVC029 02/M03 A3044 RMK AO2 SLP313 T00171033 10028 20006 50020
Loading
Personal Weather Stations






























Interactive Weather Map New forecast layout! Learn more

10-Day Weather Forecast

Advertisements
Track Severe Weather on mobile